createdAt,value
2023-02-02T00:01:29.817Z,101176.41
2023-02-02T00:03:57.381Z,101175.66
2023-02-02T00:06:27.192Z,101184.53
2023-02-02T00:08:57.072Z,101190.81
2023-02-02T00:11:24.884Z,101202.41
2023-02-02T00:13:51.928Z,101219.31
2023-02-02T00:16:28.493Z,101220.34
2023-02-02T00:19:01.259Z,101227.56
2023-02-02T00:21:28.830Z,101225.94
2023-02-02T00:23:55.768Z,101227.81
2023-02-02T00:26:22.725Z,101199.59
2023-02-02T00:28:50.508Z,101194.41
2023-02-02T00:31:17.353Z,101192.75
2023-02-02T00:33:48.568Z,101187.63
2023-02-02T00:36:15.609Z,101186.75
2023-02-02T00:38:43.931Z,101189.47
2023-02-02T00:41:11.204Z,101194.94
2023-02-02T00:43:38.036Z,101202.94
2023-02-02T00:46:06.008Z,101206.59
2023-02-02T00:48:32.950Z,101196.16
2023-02-02T00:51:00.267Z,101190.94
2023-02-02T00:53:27.146Z,101184.03
2023-02-02T00:55:54.000Z,101193.84
2023-02-02T00:58:21.273Z,101182.44
2023-02-02T01:00:48.355Z,101177.31
2023-02-02T01:03:15.326Z,101165.03
2023-02-02T01:05:42.318Z,101161.59
2023-02-02T01:08:09.279Z,101155.44
2023-02-02T01:10:36.401Z,101147.56
2023-02-02T01:13:03.531Z,101159.09
2023-02-02T01:15:30.899Z,101167.97
2023-02-02T01:17:58.463Z,101162.81
2023-02-02T01:20:26.099Z,101155.84
2023-02-02T01:22:53.203Z,101155.97
2023-02-02T01:25:20.232Z,101163.06
2023-02-02T01:27:48.041Z,101159.56
2023-02-02T01:30:16.203Z,101149.97
2023-02-02T01:32:43.071Z,101148.25
2023-02-02T01:35:10.658Z,101154.50
2023-02-02T01:37:39.546Z,101150.06
2023-02-02T01:40:07.865Z,101152.00
2023-02-02T01:42:34.815Z,101144.16
2023-02-02T01:45:17.230Z,101143.19
2023-02-02T01:47:49.293Z,101138.00
2023-02-02T01:50:18.208Z,101138.06
2023-02-02T01:52:49.156Z,101138.13
2023-02-02T01:55:18.915Z,101139.00
2023-02-02T01:57:56.372Z,101132.84
2023-02-02T02:00:25.708Z,101136.41
2023-02-02T02:02:55.756Z,101139.00
2023-02-02T02:05:30.788Z,101131.97
2023-02-02T02:08:06.197Z,101144.28
2023-02-02T02:10:33.057Z,101137.28
2023-02-02T02:13:00.126Z,101136.34
2023-02-02T02:15:49.396Z,101139.00
2023-02-02T02:18:28.697Z,101131.13
2023-02-02T02:21:51.528Z,101139.00
2023-02-02T02:25:13.865Z,101131.91
2023-02-02T02:27:46.741Z,101125.69
2023-02-02T02:30:22.605Z,101134.47
2023-02-02T02:33:21.918Z,101143.28
2023-02-02T02:35:56.317Z,101136.25
2023-02-02T02:38:49.186Z,101128.41
2023-02-02T02:41:23.218Z,101132.75
2023-02-02T02:43:59.308Z,101117.84
2023-02-02T02:46:27.596Z,101111.59
2023-02-02T02:48:58.162Z,101124.03
2023-02-02T02:51:42.695Z,101119.47
2023-02-02T02:54:11.754Z,101116.75
2023-02-02T02:56:50.612Z,101121.09
2023-02-02T02:59:37.200Z,101115.81
2023-02-02T03:02:37.538Z,101105.22
2023-02-02T03:05:13.623Z,101106.94
2023-02-02T03:07:52.404Z,101110.53
2023-02-02T03:10:23.690Z,101106.09
2023-02-02T03:12:51.817Z,101106.09
2023-02-02T03:15:19.548Z,101114.88
2023-02-02T03:17:49.500Z,101109.56
2023-02-02T03:20:16.922Z,101112.22
2023-02-02T03:22:44.048Z,101098.16
2023-02-02T03:25:14.203Z,101082.19
2023-02-02T03:27:41.039Z,101083.97
2023-02-02T03:30:11.234Z,101084.75
2023-02-02T03:32:39.135Z,101086.56
2023-02-02T03:35:06.462Z,101088.25
2023-02-02T03:37:33.295Z,101091.91
2023-02-02T03:40:00.747Z,101095.41
2023-02-02T03:42:27.627Z,101097.34
2023-02-02T03:44:54.455Z,101096.34
2023-02-02T03:47:21.283Z,101092.78
2023-02-02T03:49:48.119Z,101083.06
2023-02-02T03:52:15.106Z,101082.19
2023-02-02T03:54:41.928Z,101087.34
2023-02-02T03:57:08.777Z,101088.34
2023-02-02T03:59:35.588Z,101082.03
2023-02-02T04:02:02.587Z,101091.75
2023-02-02T04:04:29.652Z,101094.34
2023-02-02T04:06:56.496Z,101092.63
2023-02-02T04:09:23.331Z,101090.84
2023-02-02T04:11:50.206Z,101092.63
2023-02-02T04:14:17.144Z,101089.81
2023-02-02T04:16:44.033Z,101089.88
2023-02-02T04:19:13.026Z,101087.19
2023-02-02T04:21:40.624Z,101072.38
2023-02-02T04:24:11.320Z,101075.75
2023-02-02T04:26:38.501Z,101075.81
2023-02-02T04:29:05.457Z,101071.31
2023-02-02T04:31:32.404Z,101080.94
2023-02-02T04:33:59.994Z,101073.19
2023-02-02T04:36:27.138Z,101078.47
2023-02-02T04:38:55.582Z,101083.69
2023-02-02T04:41:23.400Z,101081.88
2023-02-02T04:43:50.228Z,101067.03
2023-02-02T04:46:17.059Z,101063.38
2023-02-02T04:48:44.041Z,101065.06
2023-02-02T04:51:15.402Z,101066.06
2023-02-02T04:53:42.904Z,101065.06
2023-02-02T04:56:15.819Z,101070.19
2023-02-02T04:58:43.986Z,101062.34
2023-02-02T05:01:17.773Z,101051.69
2023-02-02T05:03:45.222Z,101051.69
2023-02-02T05:06:14.097Z,101064.00
2023-02-02T05:08:45.373Z,101052.44
2023-02-02T05:11:15.828Z,101047.25
2023-02-02T05:13:47.410Z,101042.81
2023-02-02T05:16:14.613Z,101041.88
2023-02-02T05:18:42.713Z,101042.72
2023-02-02T05:21:09.874Z,101039.22
2023-02-02T05:23:36.777Z,101042.81
2023-02-02T05:26:04.488Z,101040.94
2023-02-02T05:28:31.424Z,101033.00
2023-02-02T05:30:58.324Z,101045.38
2023-02-02T05:33:25.196Z,101041.72
2023-02-02T05:35:53.035Z,101050.59
2023-02-02T05:38:19.921Z,101054.00
2023-02-02T05:40:49.227Z,101046.16
2023-02-02T05:43:16.165Z,101039.91
2023-02-02T05:45:43.371Z,101037.28
2023-02-02T05:48:16.742Z,101033.75
2023-02-02T05:50:46.024Z,101026.63
2023-02-02T05:53:14.313Z,101027.66
2023-02-02T05:55:41.191Z,101024.91
2023-02-02T05:58:08.017Z,101017.13
2023-02-02T06:00:34.896Z,101017.81
2023-02-02T06:03:01.873Z,101014.47
2023-02-02T06:05:28.763Z,101022.16
2023-02-02T06:07:55.635Z,101019.47
2023-02-02T06:10:22.539Z,101006.84
2023-02-02T06:12:49.377Z,101003.88
2023-02-02T06:15:16.344Z,101001.06
2023-02-02T06:17:43.214Z,101004.31
2023-02-02T06:20:10.686Z,101010.28
2023-02-02T06:22:38.292Z,101006.88
2023-02-02T06:25:05.897Z,101009.63
2023-02-02T06:27:32.838Z,101011.31
2023-02-02T06:29:59.728Z,101006.88
2023-02-02T06:32:29.303Z,100995.25
2023-02-02T06:34:56.205Z,100999.63
2023-02-02T06:37:23.050Z,100998.50
2023-02-02T06:39:49.858Z,100992.13
2023-02-02T06:42:21.720Z,100999.06
2023-02-02T06:44:49.079Z,100997.28
2023-02-02T06:47:16.020Z,100988.38
2023-02-02T06:49:42.968Z,100989.22
2023-02-02T06:52:09.739Z,100984.69
2023-02-02T06:54:36.610Z,100994.38
2023-02-02T06:57:03.529Z,100993.25
2023-02-02T06:59:30.347Z,100998.53
2023-02-02T07:01:57.236Z,101016.16
2023-02-02T07:04:25.209Z,101017.88
2023-02-02T07:06:52.247Z,101010.00
2023-02-02T07:09:19.339Z,101017.16
2023-02-02T07:11:46.192Z,101013.97
2023-02-02T07:14:14.183Z,101010.50
2023-02-02T07:16:41.189Z,101014.09
2023-02-02T07:19:08.174Z,100998.34
2023-02-02T07:21:37.989Z,100993.97
2023-02-02T07:24:06.479Z,100995.88
2023-02-02T07:26:35.207Z,100988.03
2023-02-02T07:29:03.455Z,100988.88
2023-02-02T07:31:31.117Z,100991.97
2023-02-02T07:33:57.982Z,100986.63
2023-02-02T07:36:25.257Z,100990.28
2023-02-02T07:38:57.913Z,100980.72
2023-02-02T07:41:25.475Z,100970.81
2023-02-02T07:43:52.504Z,100973.47
2023-02-02T07:46:20.392Z,100968.09
2023-02-02T07:48:47.864Z,100968.09
2023-02-02T07:51:18.480Z,100965.53
2023-02-02T07:53:51.670Z,100969.91
2023-02-02T07:56:24.568Z,100975.19
2023-02-02T07:58:52.933Z,100965.53
2023-02-02T08:01:23.189Z,100969.97
2023-02-02T08:03:51.158Z,100966.56
2023-02-02T08:06:21.773Z,100978.00
2023-02-02T08:08:49.559Z,100978.88
2023-02-02T08:11:19.652Z,100975.41
2023-02-02T08:13:50.976Z,100973.63
2023-02-02T08:16:18.395Z,100981.56
2023-02-02T08:18:45.559Z,100975.41
2023-02-02T08:21:13.054Z,100970.81
2023-02-02T08:23:41.496Z,100973.31
2023-02-02T08:26:14.831Z,100974.34
2023-02-02T08:28:44.309Z,100974.25
2023-02-02T08:31:19.937Z,100977.75
2023-02-02T08:33:47.061Z,100966.91
2023-02-02T08:36:16.265Z,100975.88
2023-02-02T08:38:44.110Z,100971.38
2023-02-02T08:41:17.088Z,100975.53
2023-02-02T08:43:44.451Z,100985.13
2023-02-02T08:46:14.716Z,100978.97
2023-02-02T08:48:41.905Z,100975.28
2023-02-02T08:51:12.116Z,100970.84
2023-02-02T08:53:39.613Z,100967.94
2023-02-02T08:56:12.138Z,100975.72
2023-02-02T08:58:39.233Z,100975.56
2023-02-02T09:01:12.066Z,100982.66
2023-02-02T09:03:42.518Z,100978.22
2023-02-02T09:06:17.813Z,100979.84
2023-02-02T09:08:46.103Z,100983.28
2023-02-02T09:11:18.012Z,100974.34
2023-02-02T09:13:47.067Z,100969.03
2023-02-02T09:16:15.900Z,100975.00
2023-02-02T09:18:44.050Z,100971.44
2023-02-02T09:21:13.357Z,100975.69
2023-02-02T09:23:42.100Z,100968.69
2023-02-02T09:26:18.594Z,100973.81
2023-02-02T09:28:48.773Z,100968.34
2023-02-02T09:31:16.423Z,100963.91
2023-02-02T09:33:43.914Z,100962.03
2023-02-02T09:36:13.490Z,100964.50
2023-02-02T09:38:41.902Z,100967.91
2023-02-02T09:41:41.116Z,100966.19
2023-02-02T09:44:14.745Z,100959.91
2023-02-02T09:47:12.774Z,100954.59
2023-02-02T09:50:14.461Z,100957.25
2023-02-02T09:52:49.923Z,100961.59
2023-02-02T09:55:29.075Z,100956.22
2023-02-02T09:58:12.879Z,100951.75
2023-02-02T10:01:22.217Z,100942.88
2023-02-02T10:04:03.548Z,100942.00
2023-02-02T10:06:40.015Z,100928.69
2023-02-02T10:09:47.764Z,100933.41
2023-02-02T10:12:30.860Z,100939.28
2023-02-02T10:15:05.827Z,100953.47
2023-02-02T10:17:39.312Z,100948.44
2023-02-02T10:20:37.396Z,100950.22
2023-02-02T10:23:19.458Z,100957.41
2023-02-02T10:25:56.741Z,100944.41
2023-02-02T10:28:42.301Z,100944.50
2023-02-02T10:31:22.511Z,100946.22
2023-02-02T10:34:11.768Z,100948.09
2023-02-02T10:36:48.085Z,100952.63
2023-02-02T10:39:14.908Z,100930.66
2023-02-02T10:41:55.425Z,100929.97
2023-02-02T10:44:40.690Z,100933.47
2023-02-02T10:47:16.938Z,100926.47
2023-02-02T10:49:43.851Z,100922.03
2023-02-02T10:52:11.474Z,100919.47
2023-02-02T10:54:57.737Z,100906.31
2023-02-02T10:58:04.077Z,100923.06
2023-02-02T11:00:39.363Z,100931.09
2023-02-02T11:03:09.058Z,100928.44
2023-02-02T11:05:55.595Z,100928.59
2023-02-02T11:08:33.012Z,100938.25
2023-02-02T11:11:12.917Z,100941.81
2023-02-02T11:13:50.435Z,100925.00
2023-02-02T11:16:17.548Z,100925.94
2023-02-02T11:18:46.266Z,100936.53
2023-02-02T11:21:27.628Z,100944.53
2023-02-02T11:24:06.806Z,100949.84
2023-02-02T11:26:47.925Z,100950.69
2023-02-02T11:29:20.981Z,100956.00
2023-02-02T11:31:48.188Z,100960.44
2023-02-02T11:34:27.769Z,100965.72
2023-02-02T11:37:25.233Z,100960.53
2023-02-02T11:39:53.923Z,100966.69
2023-02-02T11:42:23.935Z,100968.47
2023-02-02T11:44:57.715Z,100968.47
2023-02-02T11:47:30.964Z,100961.47
2023-02-02T11:50:01.215Z,100963.28
2023-02-02T11:52:32.690Z,100967.63
2023-02-02T11:55:15.988Z,100962.31
2023-02-02T11:58:19.431Z,100959.66
2023-02-02T12:00:51.515Z,100945.50
2023-02-02T12:03:27.962Z,100949.00
2023-02-02T12:05:54.990Z,100934.03
2023-02-02T12:08:22.688Z,100937.56
2023-02-02T12:10:52.727Z,100935.84
2023-02-02T12:13:37.754Z,100948.03
2023-02-02T12:16:36.834Z,100948.91
2023-02-02T12:19:25.289Z,100939.13
2023-02-02T12:22:00.217Z,100937.25
2023-02-02T12:24:36.496Z,100929.22
2023-02-02T12:27:15.372Z,100921.16
2023-02-02T12:29:54.312Z,100918.63
2023-02-02T12:32:36.679Z,100907.16
2023-02-02T12:35:22.132Z,100903.59
2023-02-02T12:38:12.417Z,100889.38
2023-02-02T12:40:51.684Z,100894.34
2023-02-02T12:43:18.528Z,100890.75
2023-02-02T12:46:03.661Z,100894.00
2023-02-02T12:49:07.250Z,100899.19
2023-02-02T12:51:48.986Z,100887.94
2023-02-02T12:54:47.267Z,100895.19
2023-02-02T12:57:35.557Z,100897.56
2023-02-02T13:00:11.421Z,100909.03
2023-02-02T13:02:56.990Z,100911.59
2023-02-02T13:08:21.601Z,100897.31
2023-02-02T13:10:54.470Z,100890.16
2023-02-02T13:13:29.619Z,100876.91
2023-02-02T13:16:10.906Z,100854.84
2023-02-02T13:18:52.137Z,100861.66
2023-02-02T13:21:23.027Z,100842.47
2023-02-02T13:23:52.653Z,100840.47
2023-02-02T13:26:27.273Z,100824.56
2023-02-02T13:29:06.092Z,100831.47
2023-02-02T13:31:51.056Z,100823.34
2023-02-02T13:34:25.031Z,100811.94
2023-02-02T13:37:02.125Z,100804.91
2023-02-02T13:39:37.612Z,100806.63
2023-02-02T13:42:17.094Z,100801.31
2023-02-02T13:44:53.348Z,100802.16
2023-02-02T13:47:31.066Z,100787.13
2023-02-02T13:50:06.457Z,100787.13
2023-02-02T13:52:41.914Z,100786.06
2023-02-02T13:55:28.951Z,100788.38
2023-02-02T13:58:12.147Z,100777.59
2023-02-02T14:00:52.532Z,100807.31
2023-02-02T14:03:22.280Z,100800.69
2023-02-02T14:06:10.803Z,100799.28
2023-02-02T14:08:44.157Z,100803.44
2023-02-02T14:11:19.687Z,100792.59
2023-02-02T14:14:09.397Z,100794.00
2023-02-02T14:16:36.465Z,100776.03
2023-02-02T14:19:14.880Z,100789.91
2023-02-02T14:21:41.777Z,100790.53
2023-02-02T14:24:27.386Z,100789.28
2023-02-02T14:26:58.446Z,100787.28
2023-02-02T14:29:37.395Z,100791.38
2023-02-02T14:32:07.388Z,100781.34
2023-02-02T14:34:35.486Z,100775.72
2023-02-02T14:37:26.794Z,100775.47
2023-02-02T14:39:59.670Z,100760.19
2023-02-02T14:43:18.957Z,100765.22
2023-02-02T14:46:15.110Z,100777.31
2023-02-02T14:48:49.159Z,100773.63
2023-02-02T14:51:25.511Z,100766.31
2023-02-02T14:54:01.075Z,100756.38
2023-02-02T14:56:45.699Z,100778.44
2023-02-02T14:59:30.545Z,100783.66
2023-02-02T15:02:10.775Z,100772.75
2023-02-02T15:04:38.162Z,100782.41
2023-02-02T15:07:26.482Z,100782.31
2023-02-02T15:09:58.520Z,100787.63
2023-02-02T15:12:46.039Z,100784.31
2023-02-02T15:15:24.202Z,100790.88
2023-02-02T15:18:13.167Z,100797.00
2023-02-02T15:20:49.614Z,100783.75
2023-02-02T15:23:27.875Z,100785.47
2023-02-02T15:26:22.832Z,100779.41
2023-02-02T15:29:08.411Z,100789.34
2023-02-02T15:31:43.488Z,100800.84
2023-02-02T15:34:21.234Z,100782.38
2023-02-02T15:36:52.263Z,100785.84
2023-02-02T15:39:31.713Z,100782.25
2023-02-02T15:42:19.994Z,100773.53
2023-02-02T15:44:47.140Z,100789.47
2023-02-02T15:47:25.632Z,100752.13
2023-02-02T15:49:52.786Z,100738.84
2023-02-02T15:52:25.644Z,100777.69
2023-02-02T15:54:58.768Z,100809.34
2023-02-02T15:57:34.890Z,100808.41
2023-02-02T16:00:28.522Z,100800.53
2023-02-02T16:03:14.813Z,100796.00
2023-02-02T16:05:47.209Z,100786.00
2023-02-02T16:08:35.473Z,100773.47
2023-02-02T16:11:15.160Z,100779.56
2023-02-02T16:13:45.309Z,100797.97
2023-02-02T16:16:27.985Z,100797.84
2023-02-02T16:19:14.135Z,100792.16
2023-02-02T16:21:59.293Z,100808.72
2023-02-02T16:24:32.402Z,100813.09
2023-02-02T16:27:01.208Z,100815.94
2023-02-02T16:29:29.287Z,100816.88
2023-02-02T16:31:57.109Z,100832.72
2023-02-02T16:34:43.271Z,100823.59
2023-02-02T16:37:23.585Z,100823.31
2023-02-02T16:39:50.616Z,100842.78
2023-02-02T16:42:25.487Z,100822.09
2023-02-02T16:44:52.587Z,100822.25
2023-02-02T16:47:28.349Z,100824.97
2023-02-02T16:50:10.682Z,100823.28
2023-02-02T16:52:57.757Z,100818.63
2023-02-02T16:55:36.300Z,100818.63
2023-02-02T16:58:18.994Z,100800.16
2023-02-02T17:01:17.097Z,100807.38
2023-02-02T17:03:54.606Z,100799.28
2023-02-02T17:06:46.281Z,100793.78
2023-02-02T17:09:35.999Z,100794.66
2023-02-02T17:12:34.805Z,100801.63
2023-02-02T17:15:17.347Z,100801.25
2023-02-02T17:17:49.146Z,100782.59
2023-02-02T17:20:18.227Z,100788.09
2023-02-02T17:23:03.746Z,100804.78
2023-02-02T17:25:37.714Z,100785.38
2023-02-02T17:28:10.581Z,100779.03
2023-02-02T17:30:40.018Z,100766.19
2023-02-02T17:33:15.126Z,100784.56
2023-02-02T17:35:53.617Z,100786.84
2023-02-02T17:38:24.274Z,100782.16
2023-02-02T17:40:51.979Z,100793.13
2023-02-02T17:43:19.095Z,100781.47
2023-02-02T17:45:46.203Z,100783.06
2023-02-02T17:48:14.672Z,100793.97
2023-02-02T17:50:43.866Z,100796.84
2023-02-02T17:53:13.759Z,100798.19
2023-02-02T17:55:42.858Z,100786.28
2023-02-02T17:58:13.500Z,100789.41
2023-02-02T18:00:42.328Z,100796.22
2023-02-02T18:03:46.520Z,100809.06
2023-02-02T18:06:13.875Z,100813.13
2023-02-02T18:08:42.004Z,100809.22
2023-02-02T18:11:14.229Z,100801.91
2023-02-02T18:13:44.733Z,100796.38
2023-02-02T18:16:13.600Z,100800.63
2023-02-02T18:18:40.849Z,100794.13
2023-02-02T18:21:10.111Z,100792.44
2023-02-02T18:23:38.256Z,100781.03
2023-02-02T18:26:18.042Z,100782.75
2023-02-02T18:28:46.371Z,100789.13
2023-02-02T18:31:15.642Z,100778.81
2023-02-02T18:33:42.836Z,100781.69
2023-02-02T18:36:13.754Z,100779.88
2023-02-02T18:39:01.958Z,100780.72
2023-02-02T18:41:29.252Z,100780.09
2023-02-02T18:43:56.204Z,100781.78
2023-02-02T18:46:23.558Z,100765.41
2023-02-02T18:48:50.771Z,100773.91
2023-02-02T18:51:19.085Z,100767.44
2023-02-02T18:53:48.737Z,100765.72
2023-02-02T18:56:16.087Z,100781.34
2023-02-02T18:58:43.258Z,100770.72
2023-02-02T19:01:16.497Z,100753.69
2023-02-02T19:03:47.837Z,100753.69
2023-02-02T19:06:33.737Z,100756.28
2023-02-02T19:09:00.770Z,100765.84
2023-02-02T19:11:39.343Z,100756.16
2023-02-02T19:14:31.573Z,100752.63
2023-02-02T19:17:09.570Z,100762.44
2023-02-02T19:19:38.022Z,100754.56
2023-02-02T19:22:23.122Z,100771.38
2023-02-02T19:24:53.464Z,100766.25
2023-02-02T19:27:23.378Z,100771.50
2023-02-02T19:29:54.111Z,100790.09
2023-02-02T19:32:25.214Z,100787.13
2023-02-02T19:34:57.741Z,100792.66
2023-02-02T19:37:27.929Z,100786.34
2023-02-02T19:40:10.348Z,100789.53
2023-02-02T19:42:44.039Z,100786.69
2023-02-02T19:45:30.528Z,100788.28
2023-02-02T19:47:58.667Z,100803.94
2023-02-02T19:50:28.658Z,100800.09
2023-02-02T19:52:56.488Z,100800.75
2023-02-02T19:55:29.596Z,100804.03
2023-02-02T19:58:16.414Z,100795.63
2023-02-02T20:00:45.722Z,100804.13
2023-02-02T20:03:23.088Z,100803.19
2023-02-02T20:05:52.624Z,100819.81
2023-02-02T20:08:31.343Z,100790.94
2023-02-02T20:11:32.487Z,100777.25
2023-02-02T20:14:01.342Z,100772.44
2023-02-02T20:16:38.571Z,100767.75
2023-02-02T20:19:05.770Z,100773.69
2023-02-02T20:21:39.023Z,100759.22
2023-02-02T20:24:40.594Z,100759.00
2023-02-02T20:27:26.576Z,100752.69
2023-02-02T20:29:58.079Z,100768.66
2023-02-02T20:32:38.364Z,100792.63
2023-02-02T20:35:22.075Z,100795.28
2023-02-02T20:37:49.296Z,100781.75
2023-02-02T20:40:27.178Z,100773.69
2023-02-02T20:42:56.869Z,100783.47
2023-02-02T20:45:26.370Z,100782.28
2023-02-02T20:47:53.922Z,100784.72
2023-02-02T20:50:23.504Z,100797.09
2023-02-02T20:52:53.183Z,100790.78
2023-02-02T20:55:20.422Z,100804.31
2023-02-02T20:57:48.865Z,100807.75
2023-02-02T21:00:18.428Z,100811.78
2023-02-02T21:02:46.551Z,100800.06
2023-02-02T21:05:14.121Z,100809.75
2023-02-02T21:07:41.287Z,100807.75
2023-02-02T21:10:08.847Z,100791.78
2023-02-02T21:12:37.138Z,100797.81
2023-02-02T21:15:05.048Z,100805.81
2023-02-02T21:17:32.484Z,100810.41
2023-02-02T21:19:59.652Z,100802.50
2023-02-02T21:22:26.887Z,100807.75
2023-02-02T21:24:55.234Z,100793.44
2023-02-02T21:27:22.491Z,100783.78
2023-02-02T21:29:50.943Z,100776.75
2023-02-02T21:32:20.123Z,100785.69
2023-02-02T21:34:47.346Z,100786.66
2023-02-02T21:37:17.038Z,100778.66
2023-02-02T21:39:51.270Z,100768.97
2023-02-02T21:42:22.728Z,100764.84
2023-02-02T21:44:57.640Z,100773.91
2023-02-02T21:47:49.853Z,100768.56
2023-02-02T21:50:27.439Z,100765.28
2023-02-02T21:53:20.298Z,100751.78
2023-02-02T21:55:54.482Z,100749.66
2023-02-02T21:58:28.537Z,100748.56
2023-02-02T22:01:03.015Z,100745.81
2023-02-02T22:03:39.367Z,100749.44
2023-02-02T22:06:21.658Z,100748.78
2023-02-02T22:08:49.641Z,100746.25
2023-02-02T22:11:36.787Z,100750.75
2023-02-02T22:14:27.383Z,100755.22
2023-02-02T22:16:58.120Z,100752.88
2023-02-02T22:19:44.104Z,100770.00
2023-02-02T22:22:19.400Z,100773.78
2023-02-02T22:24:53.996Z,100782.94
2023-02-02T22:27:25.283Z,100792.44
2023-02-02T22:30:01.245Z,100798.44
2023-02-02T22:32:28.579Z,100801.63
2023-02-02T22:34:55.481Z,100815.53
2023-02-02T22:37:22.493Z,100815.16
2023-02-02T22:39:50.813Z,100815.56
2023-02-02T22:42:18.618Z,100805.50
2023-02-02T22:44:46.085Z,100813.03
2023-02-02T22:47:13.207Z,100827.56
2023-02-02T22:49:40.729Z,100828.88
2023-02-02T22:52:07.675Z,100835.34
2023-02-02T22:54:37.424Z,100832.13
2023-02-02T22:57:05.786Z,100822.75
2023-02-02T22:59:32.669Z,100830.88
2023-02-02T23:02:00.497Z,100820.66
2023-02-02T23:04:27.588Z,100825.41
2023-02-02T23:06:54.644Z,100840.69
2023-02-02T23:09:21.540Z,100834.78
2023-02-02T23:11:49.479Z,100831.44
2023-02-02T23:14:16.456Z,100830.00
2023-02-02T23:16:43.398Z,100820.53
2023-02-02T23:19:10.268Z,100856.16
2023-02-02T23:21:37.203Z,100850.28
2023-02-02T23:24:04.551Z,100860.13
2023-02-02T23:26:32.040Z,100865.78
2023-02-02T23:28:58.935Z,100868.53
2023-02-02T23:31:26.157Z,100868.81
2023-02-02T23:33:53.151Z,100879.59
2023-02-02T23:36:20.097Z,100881.50
2023-02-02T23:38:46.967Z,100891.34
2023-02-02T23:41:13.875Z,100878.31
2023-02-02T23:43:42.781Z,100880.41
2023-02-02T23:46:10.416Z,100873.47
2023-02-02T23:48:37.759Z,100883.31
2023-02-02T23:51:05.241Z,100892.41
2023-02-02T23:53:32.148Z,100897.88
2023-02-02T23:55:59.026Z,100916.50
2023-02-02T23:58:26.133Z,100931.66
